sensor_id;sensor_type;location;lat;lon;timestamp;P1;durP1;ratioP1;P2;durP2;ratioP2
20842;SDS011;26719;51.440;-2.574;2023-05-15T00:00:51;0.00;;;0.00;;
20842;SDS011;26719;51.440;-2.574;2023-05-15T00:03:17;0.00;;;0.00;;
20842;SDS011;26719;51.440;-2.574;2023-05-15T00:05:43;0.00;;;0.00;;
20842;SDS011;26719;51.440;-2.574;2023-05-15T00:08:10;0.00;;;0.00;;
20842;SDS011;26719;51.440;-2.574;2023-05-15T00:10:36;0.00;;;0.00;;
20842;SDS011;26719;51.440;-2.574;2023-05-15T00:13:02;0.00;;;0.00;;
20842;SDS011;26719;51.440;-2.574;2023-05-15T00:15:28;0.00;;;0.00;;
20842;SDS011;26719;51.440;-2.574;2023-05-15T00:17:54;0.00;;;0.00;;
20842;SDS011;26719;51.440;-2.574;2023-05-15T00:20:23;0.00;;;0.00;;
20842;SDS011;26719;51.440;-2.574;2023-05-15T00:22:49;0.00;;;0.00;;
20842;SDS011;26719;51.440;-2.574;2023-05-15T00:25:15;0.00;;;0.00;;
20842;SDS011;26719;51.440;-2.574;2023-05-15T00:27:43;0.00;;;0.00;;
20842;SDS011;26719;51.440;-2.574;2023-05-15T00:30:09;0.00;;;0.00;;
20842;SDS011;26719;51.440;-2.574;2023-05-15T00:32:35;0.00;;;0.00;;
20842;SDS011;26719;51.440;-2.574;2023-05-15T00:35:01;0.00;;;0.00;;
20842;SDS011;26719;51.440;-2.574;2023-05-15T00:37:28;0.00;;;0.00;;
20842;SDS011;26719;51.440;-2.574;2023-05-15T00:39:54;0.00;;;0.00;;
20842;SDS011;26719;51.440;-2.574;2023-05-15T00:42:21;0.00;;;0.00;;
20842;SDS011;26719;51.440;-2.574;2023-05-15T00:44:48;0.00;;;0.00;;
20842;SDS011;26719;51.440;-2.574;2023-05-15T00:47:15;0.00;;;0.00;;
20842;SDS011;26719;51.440;-2.574;2023-05-15T00:49:42;0.00;;;0.00;;
20842;SDS011;26719;51.440;-2.574;2023-05-15T00:52:08;0.00;;;0.00;;
20842;SDS011;26719;51.440;-2.574;2023-05-15T00:54:34;0.10;;;0.10;;
20842;SDS011;26719;51.440;-2.574;2023-05-15T00:57:00;0.00;;;0.00;;
20842;SDS011;26719;51.440;-2.574;2023-05-15T00:59:27;0.00;;;0.00;;
20842;SDS011;26719;51.440;-2.574;2023-05-15T01:01:53;0.10;;;0.10;;
20842;SDS011;26719;51.440;-2.574;2023-05-15T01:04:20;0.00;;;0.00;;
20842;SDS011;26719;51.440;-2.574;2023-05-15T01:06:46;0.10;;;0.10;;
20842;SDS011;26719;51.440;-2.574;2023-05-15T01:09:13;0.03;;;0.03;;
20842;SDS011;26719;51.440;-2.574;2023-05-15T01:11:39;0.00;;;0.00;;
20842;SDS011;26719;51.440;-2.574;2023-05-15T01:14:07;0.00;;;0.00;;
20842;SDS011;26719;51.440;-2.574;2023-05-15T01:16:34;0.00;;;0.00;;
20842;SDS011;26719;51.440;-2.574;2023-05-15T01:19:00;0.03;;;0.03;;
20842;SDS011;26719;51.440;-2.574;2023-05-15T01:31:53;0.00;;;0.00;;
20842;SDS011;26719;51.440;-2.574;2023-05-15T01:34:21;0.10;;;0.10;;
20842;SDS011;26719;51.440;-2.574;2023-05-15T01:36:50;0.10;;;0.10;;
20842;SDS011;26719;51.440;-2.574;2023-05-15T01:39:19;0.10;;;0.10;;
20842;SDS011;26719;51.440;-2.574;2023-05-15T01:41:59;0.00;;;0.00;;
20842;SDS011;26719;51.440;-2.574;2023-05-15T01:44:27;0.10;;;0.10;;
20842;SDS011;26719;51.440;-2.574;2023-05-15T01:46:56;0.00;;;0.00;;
20842;SDS011;26719;51.440;-2.574;2023-05-15T01:49:25;0.10;;;0.10;;
20842;SDS011;26719;51.440;-2.574;2023-05-15T01:52:02;0.07;;;0.07;;
20842;SDS011;26719;51.440;-2.574;2023-05-15T01:54:30;0.10;;;0.10;;
20842;SDS011;26719;51.440;-2.574;2023-05-15T01:56:56;0.00;;;0.00;;
20842;SDS011;26719;51.440;-2.574;2023-05-15T01:59:23;0.10;;;0.10;;
20842;SDS011;26719;51.440;-2.574;2023-05-15T02:01:50;0.00;;;0.00;;
20842;SDS011;26719;51.440;-2.574;2023-05-15T02:04:16;0.10;;;0.10;;
20842;SDS011;26719;51.440;-2.574;2023-05-15T02:06:43;0.10;;;0.10;;
20842;SDS011;26719;51.440;-2.574;2023-05-15T02:09:10;0.07;;;0.07;;
20842;SDS011;26719;51.440;-2.574;2023-05-15T02:11:36;0.00;;;0.00;;
20842;SDS011;26719;51.440;-2.574;2023-05-15T02:14:03;0.00;;;0.00;;
20842;SDS011;26719;51.440;-2.574;2023-05-15T02:16:30;0.10;;;0.10;;
20842;SDS011;26719;51.440;-2.574;2023-05-15T02:18:56;0.00;;;0.00;;
20842;SDS011;26719;51.440;-2.574;2023-05-15T02:21:22;0.10;;;0.10;;
20842;SDS011;26719;51.440;-2.574;2023-05-15T02:23:48;0.00;;;0.00;;
20842;SDS011;26719;51.440;-2.574;2023-05-15T02:31:33;0.10;;;0.10;;
20842;SDS011;26719;51.440;-2.574;2023-05-15T02:34:08;0.00;;;0.00;;
20842;SDS011;26719;51.440;-2.574;2023-05-15T02:36:39;0.00;;;0.00;;
20842;SDS011;26719;51.440;-2.574;2023-05-15T02:39:06;0.10;;;0.10;;
20842;SDS011;26719;51.440;-2.574;2023-05-15T02:41:33;0.10;;;0.10;;
20842;SDS011;26719;51.440;-2.574;2023-05-15T02:44:00;0.10;;;0.10;;
20842;SDS011;26719;51.440;-2.574;2023-05-15T02:46:27;0.10;;;0.10;;
20842;SDS011;26719;51.440;-2.574;2023-05-15T02:48:53;0.10;;;0.10;;
20842;SDS011;26719;51.440;-2.574;2023-05-15T02:51:20;0.10;;;0.10;;
20842;SDS011;26719;51.440;-2.574;2023-05-15T02:53:46;0.10;;;0.10;;
20842;SDS011;26719;51.440;-2.574;2023-05-15T02:56:12;0.10;;;0.10;;
20842;SDS011;26719;51.440;-2.574;2023-05-15T02:58:38;0.10;;;0.10;;
20842;SDS011;26719;51.440;-2.574;2023-05-15T03:01:05;0.10;;;0.10;;
20842;SDS011;26719;51.440;-2.574;2023-05-15T03:03:31;0.10;;;0.10;;
20842;SDS011;26719;51.440;-2.574;2023-05-15T03:05:57;0.10;;;0.10;;
20842;SDS011;26719;51.440;-2.574;2023-05-15T03:08:25;0.10;;;0.10;;
20842;SDS011;26719;51.440;-2.574;2023-05-15T03:10:51;0.10;;;0.10;;
20842;SDS011;26719;51.440;-2.574;2023-05-15T03:13:17;0.10;;;0.10;;
20842;SDS011;26719;51.440;-2.574;2023-05-15T03:15:43;0.10;;;0.10;;
20842;SDS011;26719;51.440;-2.574;2023-05-15T03:18:09;0.10;;;0.10;;
20842;SDS011;26719;51.440;-2.574;2023-05-15T03:20:35;0.07;;;0.07;;
20842;SDS011;26719;51.440;-2.574;2023-05-15T03:23:01;0.10;;;0.10;;
20842;SDS011;26719;51.440;-2.574;2023-05-15T03:25:27;0.10;;;0.10;;
20842;SDS011;26719;51.440;-2.574;2023-05-15T03:27:53;0.10;;;0.10;;
20842;SDS011;26719;51.440;-2.574;2023-05-15T03:30:19;0.10;;;0.10;;
20842;SDS011;26719;51.440;-2.574;2023-05-15T03:32:45;0.10;;;0.10;;
20842;SDS011;26719;51.440;-2.574;2023-05-15T03:35:11;0.00;;;0.00;;
20842;SDS011;26719;51.440;-2.574;2023-05-15T03:37:37;0.10;;;0.10;;
20842;SDS011;26719;51.440;-2.574;2023-05-15T03:40:04;0.20;;;0.20;;
20842;SDS011;26719;51.440;-2.574;2023-05-15T03:42:31;0.10;;;0.10;;
20842;SDS011;26719;51.440;-2.574;2023-05-15T03:44:57;0.10;;;0.10;;
20842;SDS011;26719;51.440;-2.574;2023-05-15T03:47:23;0.10;;;0.10;;
20842;SDS011;26719;51.440;-2.574;2023-05-15T03:49:49;0.10;;;0.10;;
20842;SDS011;26719;51.440;-2.574;2023-05-15T03:52:15;0.10;;;0.10;;
20842;SDS011;26719;51.440;-2.574;2023-05-15T03:54:41;0.10;;;0.10;;
20842;SDS011;26719;51.440;-2.574;2023-05-15T03:57:07;0.10;;;0.10;;
20842;SDS011;26719;51.440;-2.574;2023-05-15T03:59:33;0.00;;;0.00;;
20842;SDS011;26719;51.440;-2.574;2023-05-15T04:01:59;0.10;;;0.10;;
20842;SDS011;26719;51.440;-2.574;2023-05-15T04:04:25;0.10;;;0.10;;
20842;SDS011;26719;51.440;-2.574;2023-05-15T04:06:51;0.10;;;0.10;;
20842;SDS011;26719;51.440;-2.574;2023-05-15T04:09:17;0.10;;;0.10;;
20842;SDS011;26719;51.440;-2.574;2023-05-15T04:11:43;0.10;;;0.10;;
20842;SDS011;26719;51.440;-2.574;2023-05-15T04:14:10;0.10;;;0.10;;
20842;SDS011;26719;51.440;-2.574;2023-05-15T04:16:37;0.10;;;0.10;;
20842;SDS011;26719;51.440;-2.574;2023-05-15T04:19:03;0.10;;;0.10;;
20842;SDS011;26719;51.440;-2.574;2023-05-15T04:21:29;0.10;;;0.10;;
20842;SDS011;26719;51.440;-2.574;2023-05-15T04:23:55;0.10;;;0.10;;
20842;SDS011;26719;51.440;-2.574;2023-05-15T04:26:21;0.10;;;0.10;;
20842;SDS011;26719;51.440;-2.574;2023-05-15T04:28:47;0.10;;;0.10;;
20842;SDS011;26719;51.440;-2.574;2023-05-15T04:31:13;0.10;;;0.10;;
20842;SDS011;26719;51.440;-2.574;2023-05-15T04:33:39;0.17;;;0.17;;
20842;SDS011;26719;51.440;-2.574;2023-05-15T04:36:05;0.20;;;0.20;;
20842;SDS011;26719;51.440;-2.574;2023-05-15T04:38:31;0.10;;;0.10;;
20842;SDS011;26719;51.440;-2.574;2023-05-15T04:40:58;0.10;;;0.10;;
20842;SDS011;26719;51.440;-2.574;2023-05-15T04:43:24;0.20;;;0.20;;
20842;SDS011;26719;51.440;-2.574;2023-05-15T04:45:50;0.10;;;0.10;;
20842;SDS011;26719;51.440;-2.574;2023-05-15T04:48:16;0.13;;;0.13;;
20842;SDS011;26719;51.440;-2.574;2023-05-15T04:50:43;0.20;;;0.20;;
20842;SDS011;26719;51.440;-2.574;2023-05-15T04:53:09;0.20;;;0.20;;
20842;SDS011;26719;51.440;-2.574;2023-05-15T04:55:35;0.20;;;0.20;;
20842;SDS011;26719;51.440;-2.574;2023-05-15T04:58:01;0.10;;;0.10;;
20842;SDS011;26719;51.440;-2.574;2023-05-15T05:00:27;0.10;;;0.10;;
20842;SDS011;26719;51.440;-2.574;2023-05-15T05:02:53;0.10;;;0.10;;
20842;SDS011;26719;51.440;-2.574;2023-05-15T05:05:19;0.13;;;0.13;;
20842;SDS011;26719;51.440;-2.574;2023-05-15T05:07:45;0.10;;;0.10;;
20842;SDS011;26719;51.440;-2.574;2023-05-15T05:10:12;0.20;;;0.20;;
20842;SDS011;26719;51.440;-2.574;2023-05-15T05:12:38;0.10;;;0.10;;
20842;SDS011;26719;51.440;-2.574;2023-05-15T05:15:04;0.10;;;0.10;;
20842;SDS011;26719;51.440;-2.574;2023-05-15T05:17:30;0.10;;;0.10;;
20842;SDS011;26719;51.440;-2.574;2023-05-15T05:19:56;0.10;;;0.10;;
20842;SDS011;26719;51.440;-2.574;2023-05-15T05:22:22;0.10;;;0.10;;
20842;SDS011;26719;51.440;-2.574;2023-05-15T05:24:48;0.10;;;0.10;;
20842;SDS011;26719;51.440;-2.574;2023-05-15T05:27:14;0.10;;;0.10;;
20842;SDS011;26719;51.440;-2.574;2023-05-15T05:29:40;0.20;;;0.20;;
20842;SDS011;26719;51.440;-2.574;2023-05-15T05:32:06;0.10;;;0.10;;
20842;SDS011;26719;51.440;-2.574;2023-05-15T05:34:32;0.10;;;0.10;;
20842;SDS011;26719;51.440;-2.574;2023-05-15T05:36:59;0.10;;;0.10;;
20842;SDS011;26719;51.440;-2.574;2023-05-15T05:39:25;0.10;;;0.10;;
20842;SDS011;26719;51.440;-2.574;2023-05-15T05:41:51;0.10;;;0.10;;
20842;SDS011;26719;51.440;-2.574;2023-05-15T05:44:17;0.10;;;0.10;;
20842;SDS011;26719;51.440;-2.574;2023-05-15T05:46:43;0.10;;;0.10;;
20842;SDS011;26719;51.440;-2.574;2023-05-15T05:49:11;0.10;;;0.10;;
20842;SDS011;26719;51.440;-2.574;2023-05-15T05:51:37;0.10;;;0.10;;
20842;SDS011;26719;51.440;-2.574;2023-05-15T05:54:03;0.20;;;0.20;;
20842;SDS011;26719;51.440;-2.574;2023-05-15T05:56:29;0.20;;;0.20;;
20842;SDS011;26719;51.440;-2.574;2023-05-15T05:58:55;0.10;;;0.10;;
20842;SDS011;26719;51.440;-2.574;2023-05-15T06:01:23;0.10;;;0.10;;
20842;SDS011;26719;51.440;-2.574;2023-05-15T06:03:50;0.20;;;0.20;;
20842;SDS011;26719;51.440;-2.574;2023-05-15T06:06:16;0.20;;;0.20;;
20842;SDS011;26719;51.440;-2.574;2023-05-15T06:08:42;0.10;;;0.10;;
20842;SDS011;26719;51.440;-2.574;2023-05-15T06:11:08;0.20;;;0.20;;
20842;SDS011;26719;51.440;-2.574;2023-05-15T06:13:35;0.10;;;0.10;;
20842;SDS011;26719;51.440;-2.574;2023-05-15T06:16:01;0.10;;;0.10;;
20842;SDS011;26719;51.440;-2.574;2023-05-15T06:18:29;0.20;;;0.20;;
20842;SDS011;26719;51.440;-2.574;2023-05-15T06:20:55;0.20;;;0.20;;
20842;SDS011;26719;51.440;-2.574;2023-05-15T06:23:24;0.10;;;0.10;;
20842;SDS011;26719;51.440;-2.574;2023-05-15T06:25:50;0.20;;;0.20;;
20842;SDS011;26719;51.440;-2.574;2023-05-15T06:28:16;0.20;;;0.20;;
20842;SDS011;26719;51.440;-2.574;2023-05-15T06:30:42;0.20;;;0.20;;
20842;SDS011;26719;51.440;-2.574;2023-05-15T06:33:08;0.20;;;0.20;;
20842;SDS011;26719;51.440;-2.574;2023-05-15T06:35:34;0.20;;;0.20;;
20842;SDS011;26719;51.440;-2.574;2023-05-15T06:38:00;0.27;;;0.27;;
20842;SDS011;26719;51.440;-2.574;2023-05-15T06:40:26;0.20;;;0.20;;
20842;SDS011;26719;51.440;-2.574;2023-05-15T06:42:52;0.20;;;0.20;;
20842;SDS011;26719;51.440;-2.574;2023-05-15T06:45:18;0.20;;;0.20;;
20842;SDS011;26719;51.440;-2.574;2023-05-15T06:47:44;0.10;;;0.10;;
20842;SDS011;26719;51.440;-2.574;2023-05-15T06:50:10;0.20;;;0.20;;
20842;SDS011;26719;51.440;-2.574;2023-05-15T06:52:36;0.10;;;0.10;;
20842;SDS011;26719;51.440;-2.574;2023-05-15T06:55:02;0.20;;;0.20;;
20842;SDS011;26719;51.440;-2.574;2023-05-15T06:57:29;0.20;;;0.20;;
20842;SDS011;26719;51.440;-2.574;2023-05-15T06:59:55;0.20;;;0.20;;
20842;SDS011;26719;51.440;-2.574;2023-05-15T07:02:21;0.13;;;0.13;;
20842;SDS011;26719;51.440;-2.574;2023-05-15T07:04:47;0.20;;;0.20;;
20842;SDS011;26719;51.440;-2.574;2023-05-15T07:07:13;0.20;;;0.20;;
20842;SDS011;26719;51.440;-2.574;2023-05-15T07:09:39;0.17;;;0.17;;
20842;SDS011;26719;51.440;-2.574;2023-05-15T07:12:05;0.10;;;0.10;;
20842;SDS011;26719;51.440;-2.574;2023-05-15T07:14:31;0.10;;;0.10;;
20842;SDS011;26719;51.440;-2.574;2023-05-15T07:16:58;0.10;;;0.10;;
20842;SDS011;26719;51.440;-2.574;2023-05-15T07:19:24;0.20;;;0.20;;
20842;SDS011;26719;51.440;-2.574;2023-05-15T07:21:53;0.10;;;0.10;;
20842;SDS011;26719;51.440;-2.574;2023-05-15T07:24:19;0.20;;;0.20;;
20842;SDS011;26719;51.440;-2.574;2023-05-15T07:26:45;0.10;;;0.10;;
20842;SDS011;26719;51.440;-2.574;2023-05-15T07:29:11;0.20;;;0.20;;
20842;SDS011;26719;51.440;-2.574;2023-05-15T07:31:37;0.30;;;0.30;;
20842;SDS011;26719;51.440;-2.574;2023-05-15T07:34:04;0.20;;;0.20;;
20842;SDS011;26719;51.440;-2.574;2023-05-15T07:36:30;0.20;;;0.20;;
20842;SDS011;26719;51.440;-2.574;2023-05-15T07:38:57;0.10;;;0.10;;
20842;SDS011;26719;51.440;-2.574;2023-05-15T07:41:23;0.10;;;0.10;;
20842;SDS011;26719;51.440;-2.574;2023-05-15T07:43:49;0.10;;;0.10;;
20842;SDS011;26719;51.440;-2.574;2023-05-15T07:46:15;0.13;;;0.13;;
20842;SDS011;26719;51.440;-2.574;2023-05-15T07:48:41;0.10;;;0.10;;
20842;SDS011;26719;51.440;-2.574;2023-05-15T07:51:07;0.20;;;0.20;;
20842;SDS011;26719;51.440;-2.574;2023-05-15T07:53:33;0.10;;;0.10;;
20842;SDS011;26719;51.440;-2.574;2023-05-15T07:56:00;0.20;;;0.20;;
20842;SDS011;26719;51.440;-2.574;2023-05-15T07:58:26;0.10;;;0.10;;
20842;SDS011;26719;51.440;-2.574;2023-05-15T08:00:52;0.10;;;0.10;;
20842;SDS011;26719;51.440;-2.574;2023-05-15T08:03:18;0.17;;;0.17;;
20842;SDS011;26719;51.440;-2.574;2023-05-15T08:05:44;0.13;;;0.13;;
20842;SDS011;26719;51.440;-2.574;2023-05-15T08:08:11;0.10;;;0.10;;
20842;SDS011;26719;51.440;-2.574;2023-05-15T08:10:37;0.20;;;0.20;;
20842;SDS011;26719;51.440;-2.574;2023-05-15T08:13:03;0.10;;;0.10;;
20842;SDS011;26719;51.440;-2.574;2023-05-15T08:15:29;0.20;;;0.20;;
20842;SDS011;26719;51.440;-2.574;2023-05-15T08:17:55;0.20;;;0.20;;
20842;SDS011;26719;51.440;-2.574;2023-05-15T08:20:21;0.10;;;0.10;;
20842;SDS011;26719;51.440;-2.574;2023-05-15T08:22:47;0.20;;;0.20;;
20842;SDS011;26719;51.440;-2.574;2023-05-15T08:25:13;0.20;;;0.20;;
20842;SDS011;26719;51.440;-2.574;2023-05-15T08:27:39;0.20;;;0.20;;
20842;SDS011;26719;51.440;-2.574;2023-05-15T08:30:06;0.10;;;0.10;;
20842;SDS011;26719;51.440;-2.574;2023-05-15T08:32:32;0.30;;;0.30;;
20842;SDS011;26719;51.440;-2.574;2023-05-15T08:34:58;0.20;;;0.20;;
20842;SDS011;26719;51.440;-2.574;2023-05-15T08:37:24;0.20;;;0.20;;
20842;SDS011;26719;51.440;-2.574;2023-05-15T08:39:50;0.20;;;0.20;;
20842;SDS011;26719;51.440;-2.574;2023-05-15T08:42:34;0.20;;;0.20;;
20842;SDS011;26719;51.440;-2.574;2023-05-15T08:45:02;0.13;;;0.13;;
20842;SDS011;26719;51.440;-2.574;2023-05-15T08:47:28;0.27;;;0.27;;
20842;SDS011;26719;51.440;-2.574;2023-05-15T08:50:05;0.17;;;0.17;;
20842;SDS011;26719;51.440;-2.574;2023-05-15T08:52:32;0.10;;;0.10;;
20842;SDS011;26719;51.440;-2.574;2023-05-15T08:54:59;0.20;;;0.20;;
20842;SDS011;26719;51.440;-2.574;2023-05-15T08:57:25;0.30;;;0.30;;
20842;SDS011;26719;51.440;-2.574;2023-05-15T08:59:52;0.30;;;0.30;;
20842;SDS011;26719;51.440;-2.574;2023-05-15T09:02:18;0.20;;;0.20;;
20842;SDS011;26719;51.440;-2.574;2023-05-15T09:04:45;0.17;;;0.17;;
20842;SDS011;26719;51.440;-2.574;2023-05-15T09:07:11;0.20;;;0.20;;
20842;SDS011;26719;51.440;-2.574;2023-05-15T09:09:37;0.20;;;0.20;;
20842;SDS011;26719;51.440;-2.574;2023-05-15T09:12:04;0.20;;;0.20;;
20842;SDS011;26719;51.440;-2.574;2023-05-15T09:14:30;0.27;;;0.27;;
20842;SDS011;26719;51.440;-2.574;2023-05-15T09:16:56;0.20;;;0.20;;
20842;SDS011;26719;51.440;-2.574;2023-05-15T09:19:23;0.20;;;0.20;;
20842;SDS011;26719;51.440;-2.574;2023-05-15T09:21:49;0.20;;;0.20;;
20842;SDS011;26719;51.440;-2.574;2023-05-15T09:24:19;0.20;;;0.20;;
20842;SDS011;26719;51.440;-2.574;2023-05-15T09:27:00;0.30;;;0.30;;
20842;SDS011;26719;51.440;-2.574;2023-05-15T09:29:27;0.20;;;0.20;;
20842;SDS011;26719;51.440;-2.574;2023-05-15T09:31:53;0.30;;;0.30;;
20842;SDS011;26719;51.440;-2.574;2023-05-15T09:34:27;0.30;;;0.30;;
20842;SDS011;26719;51.440;-2.574;2023-05-15T09:36:56;0.30;;;0.30;;
20842;SDS011;26719;51.440;-2.574;2023-05-15T09:39:22;0.20;;;0.20;;
20842;SDS011;26719;51.440;-2.574;2023-05-15T09:41:48;0.30;;;0.30;;
20842;SDS011;26719;51.440;-2.574;2023-05-15T09:44:18;0.20;;;0.20;;
20842;SDS011;26719;51.440;-2.574;2023-05-15T09:46:45;0.20;;;0.20;;
20842;SDS011;26719;51.440;-2.574;2023-05-15T09:49:11;0.20;;;0.20;;
20842;SDS011;26719;51.440;-2.574;2023-05-15T09:51:38;0.30;;;0.30;;
20842;SDS011;26719;51.440;-2.574;2023-05-15T09:54:04;0.30;;;0.30;;
20842;SDS011;26719;51.440;-2.574;2023-05-15T09:56:31;0.23;;;0.23;;
20842;SDS011;26719;51.440;-2.574;2023-05-15T09:58:57;0.30;;;0.30;;
20842;SDS011;26719;51.440;-2.574;2023-05-15T10:01:24;0.30;;;0.30;;
20842;SDS011;26719;51.440;-2.574;2023-05-15T10:03:57;0.30;;;0.30;;
20842;SDS011;26719;51.440;-2.574;2023-05-15T10:06:24;0.30;;;0.30;;
20842;SDS011;26719;51.440;-2.574;2023-05-15T10:08:53;0.30;;;0.30;;
20842;SDS011;26719;51.440;-2.574;2023-05-15T10:11:19;0.30;;;0.30;;
20842;SDS011;26719;51.440;-2.574;2023-05-15T10:13:46;0.30;;;0.30;;
20842;SDS011;26719;51.440;-2.574;2023-05-15T10:16:13;0.30;;;0.30;;
20842;SDS011;26719;51.440;-2.574;2023-05-15T10:18:39;0.40;;;0.40;;
20842;SDS011;26719;51.440;-2.574;2023-05-15T10:21:07;0.30;;;0.30;;
20842;SDS011;26719;51.440;-2.574;2023-05-15T10:23:36;0.30;;;0.30;;
20842;SDS011;26719;51.440;-2.574;2023-05-15T10:26:07;0.30;;;0.30;;
20842;SDS011;26719;51.440;-2.574;2023-05-15T10:28:34;0.30;;;0.30;;
20842;SDS011;26719;51.440;-2.574;2023-05-15T10:31:00;0.30;;;0.30;;
20842;SDS011;26719;51.440;-2.574;2023-05-15T10:33:29;0.37;;;0.37;;
20842;SDS011;26719;51.440;-2.574;2023-05-15T10:35:55;0.40;;;0.40;;
20842;SDS011;26719;51.440;-2.574;2023-05-15T10:38:21;0.30;;;0.30;;
20842;SDS011;26719;51.440;-2.574;2023-05-15T10:40:47;0.40;;;0.40;;
20842;SDS011;26719;51.440;-2.574;2023-05-15T10:43:14;0.40;;;0.40;;
20842;SDS011;26719;51.440;-2.574;2023-05-15T10:45:40;0.30;;;0.30;;
20842;SDS011;26719;51.440;-2.574;2023-05-15T10:48:06;0.40;;;0.40;;
20842;SDS011;26719;51.440;-2.574;2023-05-15T10:50:37;0.30;;;0.30;;
20842;SDS011;26719;51.440;-2.574;2023-05-15T10:53:03;0.40;;;0.40;;
20842;SDS011;26719;51.440;-2.574;2023-05-15T10:55:30;0.50;;;0.50;;
20842;SDS011;26719;51.440;-2.574;2023-05-15T10:57:56;0.40;;;0.40;;
20842;SDS011;26719;51.440;-2.574;2023-05-15T11:02:48;0.50;;;0.50;;
20842;SDS011;26719;51.440;-2.574;2023-05-15T11:05:17;0.43;;;0.43;;
20842;SDS011;26719;51.440;-2.574;2023-05-15T11:07:43;0.50;;;0.50;;
20842;SDS011;26719;51.440;-2.574;2023-05-15T11:12:54;0.40;;;0.40;;
20842;SDS011;26719;51.440;-2.574;2023-05-15T11:15:20;0.40;;;0.40;;
20842;SDS011;26719;51.440;-2.574;2023-05-15T11:18:05;0.40;;;0.40;;
20842;SDS011;26719;51.440;-2.574;2023-05-15T11:20:32;0.30;;;0.30;;
20842;SDS011;26719;51.440;-2.574;2023-05-15T11:22:58;0.30;;;0.30;;
20842;SDS011;26719;51.440;-2.574;2023-05-15T11:25:28;0.40;;;0.40;;
20842;SDS011;26719;51.440;-2.574;2023-05-15T11:27:55;0.47;;;0.47;;
20842;SDS011;26719;51.440;-2.574;2023-05-15T11:30:21;0.40;;;0.40;;
20842;SDS011;26719;51.440;-2.574;2023-05-15T11:32:50;0.50;;;0.50;;
20842;SDS011;26719;51.440;-2.574;2023-05-15T11:37:49;0.40;;;0.40;;
20842;SDS011;26719;51.440;-2.574;2023-05-15T11:40:23;0.50;;;0.50;;
20842;SDS011;26719;51.440;-2.574;2023-05-15T11:43:49;0.30;;;0.30;;
20842;SDS011;26719;51.440;-2.574;2023-05-15T11:45:45;0.50;;;0.50;;
20842;SDS011;26719;51.440;-2.574;2023-05-15T11:48:13;0.40;;;0.40;;
20842;SDS011;26719;51.440;-2.574;2023-05-15T11:50:40;0.40;;;0.40;;
20842;SDS011;26719;51.440;-2.574;2023-05-15T11:53:07;0.47;;;0.47;;
20842;SDS011;26719;51.440;-2.574;2023-05-15T11:55:34;0.40;;;0.40;;
20842;SDS011;26719;51.440;-2.574;2023-05-15T11:58:01;0.50;;;0.50;;
20842;SDS011;26719;51.440;-2.574;2023-05-15T12:00:28;0.40;;;0.40;;
20842;SDS011;26719;51.440;-2.574;2023-05-15T12:02:54;0.40;;;0.40;;
20842;SDS011;26719;51.440;-2.574;2023-05-15T12:05:20;0.50;;;0.50;;
20842;SDS011;26719;51.440;-2.574;2023-05-15T12:07:46;0.57;;;0.57;;
20842;SDS011;26719;51.440;-2.574;2023-05-15T12:10:12;0.53;;;0.53;;
20842;SDS011;26719;51.440;-2.574;2023-05-15T12:12:39;0.50;;;0.50;;
20842;SDS011;26719;51.440;-2.574;2023-05-15T12:15:09;0.47;;;0.47;;
20842;SDS011;26719;51.440;-2.574;2023-05-15T12:17:36;0.40;;;0.40;;
20842;SDS011;26719;51.440;-2.574;2023-05-15T12:20:02;0.50;;;0.50;;
20842;SDS011;26719;51.440;-2.574;2023-05-15T12:22:34;0.40;;;0.40;;
20842;SDS011;26719;51.440;-2.574;2023-05-15T12:25:00;0.50;;;0.50;;
20842;SDS011;26719;51.440;-2.574;2023-05-15T12:27:26;0.40;;;0.40;;
20842;SDS011;26719;51.440;-2.574;2023-05-15T12:29:52;0.47;;;0.47;;
20842;SDS011;26719;51.440;-2.574;2023-05-15T12:32:19;0.50;;;0.50;;
20842;SDS011;26719;51.440;-2.574;2023-05-15T12:34:45;0.40;;;0.40;;
20842;SDS011;26719;51.440;-2.574;2023-05-15T12:37:12;0.40;;;0.40;;
20842;SDS011;26719;51.440;-2.574;2023-05-15T12:39:54;0.50;;;0.50;;
20842;SDS011;26719;51.440;-2.574;2023-05-15T12:42:20;0.50;;;0.50;;
20842;SDS011;26719;51.440;-2.574;2023-05-15T12:44:53;0.33;;;0.33;;
20842;SDS011;26719;51.440;-2.574;2023-05-15T12:47:23;0.30;;;0.30;;
20842;SDS011;26719;51.440;-2.574;2023-05-15T12:49:54;0.50;;;0.50;;
20842;SDS011;26719;51.440;-2.574;2023-05-15T12:52:20;0.40;;;0.40;;
20842;SDS011;26719;51.440;-2.574;2023-05-15T12:54:46;0.50;;;0.50;;
20842;SDS011;26719;51.440;-2.574;2023-05-15T12:57:12;0.47;;;0.47;;
20842;SDS011;26719;51.440;-2.574;2023-05-15T12:59:38;0.50;;;0.50;;
20842;SDS011;26719;51.440;-2.574;2023-05-15T13:02:08;0.40;;;0.40;;
20842;SDS011;26719;51.440;-2.574;2023-05-15T13:04:35;0.47;;;0.47;;
20842;SDS011;26719;51.440;-2.574;2023-05-15T13:07:01;0.40;;;0.40;;
20842;SDS011;26719;51.440;-2.574;2023-05-15T13:09:27;0.40;;;0.40;;
20842;SDS011;26719;51.440;-2.574;2023-05-15T13:11:54;0.50;;;0.50;;
20842;SDS011;26719;51.440;-2.574;2023-05-15T13:14:20;0.53;;;0.53;;
20842;SDS011;26719;51.440;-2.574;2023-05-15T13:16:50;0.70;;;0.70;;
20842;SDS011;26719;51.440;-2.574;2023-05-15T13:19:17;0.43;;;0.43;;
20842;SDS011;26719;51.440;-2.574;2023-05-15T13:21:43;0.60;;;0.60;;
20842;SDS011;26719;51.440;-2.574;2023-05-15T13:24:09;0.50;;;0.50;;
20842;SDS011;26719;51.440;-2.574;2023-05-15T13:26:36;0.43;;;0.43;;
20842;SDS011;26719;51.440;-2.574;2023-05-15T13:29:02;0.50;;;0.50;;
20842;SDS011;26719;51.440;-2.574;2023-05-15T13:31:28;0.60;;;0.60;;
20842;SDS011;26719;51.440;-2.574;2023-05-15T13:33:54;0.60;;;0.60;;
20842;SDS011;26719;51.440;-2.574;2023-05-15T13:36:20;0.60;;;0.60;;
20842;SDS011;26719;51.440;-2.574;2023-05-15T13:38:46;0.50;;;0.50;;
20842;SDS011;26719;51.440;-2.574;2023-05-15T13:41:12;0.70;;;0.70;;
20842;SDS011;26719;51.440;-2.574;2023-05-15T13:43:38;0.60;;;0.60;;
20842;SDS011;26719;51.440;-2.574;2023-05-15T13:46:04;0.70;;;0.70;;
20842;SDS011;26719;51.440;-2.574;2023-05-15T13:48:30;0.60;;;0.60;;
20842;SDS011;26719;51.440;-2.574;2023-05-15T13:50:56;0.60;;;0.60;;
20842;SDS011;26719;51.440;-2.574;2023-05-15T13:53:22;0.50;;;0.50;;
20842;SDS011;26719;51.440;-2.574;2023-05-15T13:55:48;0.57;;;0.57;;
20842;SDS011;26719;51.440;-2.574;2023-05-15T13:58:14;0.60;;;0.60;;
20842;SDS011;26719;51.440;-2.574;2023-05-15T14:00:41;0.60;;;0.60;;
20842;SDS011;26719;51.440;-2.574;2023-05-15T14:03:07;0.70;;;0.70;;
20842;SDS011;26719;51.440;-2.574;2023-05-15T14:05:33;0.60;;;0.60;;
20842;SDS011;26719;51.440;-2.574;2023-05-15T14:08:00;0.60;;;0.60;;
20842;SDS011;26719;51.440;-2.574;2023-05-15T14:10:27;0.60;;;0.60;;
20842;SDS011;26719;51.440;-2.574;2023-05-15T14:12:53;0.50;;;0.50;;
20842;SDS011;26719;51.440;-2.574;2023-05-15T14:15:20;0.60;;;0.60;;
20842;SDS011;26719;51.440;-2.574;2023-05-15T14:17:46;0.60;;;0.60;;
20842;SDS011;26719;51.440;-2.574;2023-05-15T14:20:12;0.50;;;0.50;;
20842;SDS011;26719;51.440;-2.574;2023-05-15T14:22:38;0.50;;;0.50;;
20842;SDS011;26719;51.440;-2.574;2023-05-15T14:25:05;0.50;;;0.50;;
20842;SDS011;26719;51.440;-2.574;2023-05-15T14:27:32;0.50;;;0.50;;
20842;SDS011;26719;51.440;-2.574;2023-05-15T14:29:59;0.60;;;0.60;;
20842;SDS011;26719;51.440;-2.574;2023-05-15T14:32:25;0.50;;;0.50;;
20842;SDS011;26719;51.440;-2.574;2023-05-15T14:34:51;0.60;;;0.60;;
20842;SDS011;26719;51.440;-2.574;2023-05-15T14:37:17;0.57;;;0.57;;
20842;SDS011;26719;51.440;-2.574;2023-05-15T14:39:43;0.50;;;0.50;;
20842;SDS011;26719;51.440;-2.574;2023-05-15T14:42:10;0.50;;;0.50;;
20842;SDS011;26719;51.440;-2.574;2023-05-15T14:44:36;0.50;;;0.50;;
20842;SDS011;26719;51.440;-2.574;2023-05-15T14:49:31;0.70;;;0.70;;
20842;SDS011;26719;51.440;-2.574;2023-05-15T14:51:57;0.80;;;0.80;;
20842;SDS011;26719;51.440;-2.574;2023-05-15T14:54:23;0.60;;;0.60;;
20842;SDS011;26719;51.440;-2.574;2023-05-15T14:56:49;0.50;;;0.50;;